createdAt,value
2023-02-14T00:02:45.729Z,18.13
2023-02-14T00:07:37.537Z,17.58
2023-02-14T00:12:29.321Z,16.77
2023-02-14T00:17:21.084Z,19.35
2023-02-14T00:22:12.897Z,17.88
2023-02-14T00:27:04.625Z,16.13
2023-02-14T00:31:56.861Z,16.88
2023-02-14T00:36:49.104Z,17.60
2023-02-14T00:41:42.328Z,18.17
2023-02-14T00:46:34.783Z,16.70
2023-02-14T00:51:27.104Z,15.65
2023-02-14T00:56:20.306Z,17.45
2023-02-14T01:01:13.642Z,17.98
2023-02-14T01:06:07.806Z,17.38
2023-02-14T01:11:07.710Z,16.25
2023-02-14T01:15:59.467Z,19.00
2023-02-14T01:20:53.161Z,16.23
2023-02-14T01:25:44.913Z,16.08
2023-02-14T01:30:37.210Z,14.75
2023-02-14T01:35:29.015Z,15.07
2023-02-14T01:40:23.060Z,15.95
2023-02-14T01:45:22.900Z,16.38
2023-02-14T01:50:23.402Z,16.25
2023-02-14T01:55:22.460Z,16.98
2023-02-14T02:00:34.698Z,17.27
2023-02-14T02:05:26.988Z,16.85
2023-02-14T02:10:19.266Z,16.88
2023-02-14T02:15:11.102Z,16.48
2023-02-14T02:20:33.933Z,15.90
2023-02-14T02:25:50.177Z,14.85
2023-02-14T02:31:02.145Z,17.02
2023-02-14T02:41:25.151Z,15.57
2023-02-14T02:46:45.400Z,15.50
2023-02-14T02:52:04.250Z,15.52
2023-02-14T02:56:59.597Z,15.38
2023-02-14T03:02:05.886Z,14.95
2023-02-14T03:06:59.638Z,15.50
2023-02-14T03:12:04.994Z,14.88
2023-02-14T03:17:05.155Z,15.52
2023-02-14T03:22:03.564Z,16.70
2023-02-14T03:27:15.759Z,14.60
2023-02-14T03:32:14.229Z,14.65
2023-02-14T03:37:19.895Z,14.60
2023-02-14T03:42:40.208Z,13.63
2023-02-14T03:47:33.539Z,15.30
2023-02-14T03:52:26.980Z,14.00
2023-02-14T04:02:13.217Z,13.82
2023-02-14T04:07:16.989Z,15.02
2023-02-14T04:12:09.363Z,14.48
2023-02-14T04:17:19.656Z,13.27
2023-02-14T04:22:11.485Z,13.75
2023-02-14T04:27:12.569Z,14.32
2023-02-14T04:32:06.256Z,15.27
2023-02-14T04:36:58.135Z,15.65
2023-02-14T04:41:49.896Z,17.23
2023-02-14T04:46:41.762Z,15.13
2023-02-14T04:51:33.596Z,13.77
2023-02-14T04:56:27.190Z,14.15
2023-02-14T05:01:19.300Z,14.82
2023-02-14T05:06:11.141Z,14.55
2023-02-14T05:11:02.922Z,15.93
2023-02-14T05:15:55.392Z,14.95
2023-02-14T05:20:51.240Z,15.25
2023-02-14T05:25:43.711Z,14.63
2023-02-14T05:30:35.609Z,15.10
2023-02-14T05:35:28.138Z,13.43
2023-02-14T05:40:20.007Z,14.50
2023-02-14T05:45:12.353Z,14.98
2023-02-14T05:50:05.002Z,14.25
2023-02-14T05:54:56.732Z,15.47
2023-02-14T05:59:48.503Z,14.15
2023-02-14T06:04:40.294Z,14.90
2023-02-14T06:09:32.106Z,13.40
2023-02-14T06:14:23.870Z,14.25
2023-02-14T06:19:15.612Z,13.60
2023-02-14T06:24:07.410Z,12.32
2023-02-14T06:28:59.358Z,13.35
2023-02-14T06:33:52.460Z,14.60
2023-02-14T06:38:44.365Z,14.20
2023-02-14T06:43:36.159Z,13.63
2023-02-14T06:48:28.262Z,12.38
2023-02-14T06:53:20.992Z,14.00
2023-02-14T06:58:12.873Z,15.23
2023-02-14T07:03:04.737Z,13.40
2023-02-14T07:07:56.538Z,12.93
2023-02-14T07:12:48.378Z,13.45
2023-02-14T07:17:40.265Z,13.10
2023-02-14T07:22:32.054Z,14.25
2023-02-14T07:27:23.898Z,12.95
2023-02-14T07:32:15.913Z,13.68
2023-02-14T07:37:07.795Z,42.75
2023-02-14T07:41:59.925Z,44.40
2023-02-14T07:46:51.936Z,41.15
2023-02-14T07:51:43.897Z,44.63
2023-02-14T07:56:35.692Z,43.90
2023-02-14T08:01:27.716Z,59.50
2023-02-14T08:06:20.183Z,58.80
2023-02-14T08:11:12.356Z,52.78
2023-02-14T08:16:04.529Z,56.67
2023-02-14T08:20:56.583Z,58.72
2023-02-14T08:25:50.970Z,50.13
2023-02-14T08:30:43.781Z,52.97
2023-02-14T08:35:36.015Z,48.13
2023-02-14T08:40:27.988Z,52.67
2023-02-14T08:45:20.081Z,49.28
2023-02-14T08:50:14.411Z,55.20
2023-02-14T08:55:06.997Z,52.67
2023-02-14T08:59:58.863Z,48.67
2023-02-14T09:04:50.674Z,49.88
2023-02-14T09:09:42.493Z,49.70
2023-02-14T09:14:45.527Z,48.65
2023-02-14T09:19:37.918Z,62.40
2023-02-14T09:24:31.101Z,56.35
2023-02-14T09:29:23.894Z,54.30
2023-02-14T09:34:15.632Z,60.57
2023-02-14T09:39:07.393Z,42.55
2023-02-14T09:44:19.558Z,50.88
2023-02-14T09:49:15.208Z,98.20
2023-02-14T09:54:15.160Z,67.30
2023-02-14T09:59:15.250Z,64.63
2023-02-14T10:05:06.456Z,51.63
2023-02-14T10:10:14.712Z,52.53
2023-02-14T10:15:32.021Z,41.95
2023-02-14T10:20:30.631Z,40.97
2023-02-14T10:25:26.709Z,42.50
2023-02-14T10:30:21.779Z,38.00
2023-02-14T10:35:44.602Z,35.05
2023-02-14T10:41:04.146Z,38.67
2023-02-14T10:46:17.059Z,32.30
2023-02-14T10:56:18.732Z,32.80
2023-02-14T11:01:14.039Z,27.75
2023-02-14T11:06:06.172Z,29.33
2023-02-14T11:11:18.500Z,29.80
2023-02-14T11:16:14.166Z,30.42
2023-02-14T11:21:12.004Z,25.05
2023-02-14T11:26:07.755Z,29.58
2023-02-14T11:31:00.236Z,27.48
2023-02-14T11:35:53.356Z,28.65
2023-02-14T11:40:45.201Z,25.70
2023-02-14T11:45:42.420Z,26.27
2023-02-14T11:50:34.268Z,26.42
2023-02-14T11:55:35.444Z,25.70
2023-02-14T12:00:27.931Z,25.63
2023-02-14T12:05:32.400Z,23.13
2023-02-14T12:10:28.069Z,28.17
2023-02-14T12:15:29.364Z,27.15
2023-02-14T12:20:47.339Z,28.25
2023-02-14T12:25:59.225Z,25.10
2023-02-14T12:30:51.201Z,26.63
2023-02-14T12:36:05.482Z,27.30
2023-02-14T12:41:22.097Z,25.25
2023-02-14T12:46:26.191Z,24.75
2023-02-14T12:51:25.931Z,25.15
2023-02-14T12:56:17.692Z,27.15
2023-02-14T13:01:28.403Z,24.95
2023-02-14T13:06:31.724Z,24.08
2023-02-14T13:11:51.252Z,25.55
2023-02-14T13:17:11.869Z,24.38
2023-02-14T13:22:05.499Z,25.95
2023-02-14T13:27:00.422Z,25.70
2023-02-14T13:31:56.692Z,23.80
2023-02-14T13:36:48.824Z,22.42
2023-02-14T13:41:41.875Z,21.77
2023-02-14T13:46:33.653Z,24.52
2023-02-14T13:51:44.801Z,21.30
2023-02-14T13:56:36.562Z,23.05
2023-02-14T14:01:48.147Z,20.33
2023-02-14T14:07:04.977Z,22.95
2023-02-14T14:11:56.966Z,21.08
2023-02-14T14:16:59.224Z,20.67
2023-02-14T14:22:05.916Z,18.98
2023-02-14T14:27:18.129Z,19.98
2023-02-14T14:32:12.220Z,17.67
2023-02-14T14:37:17.147Z,19.45
2023-02-14T14:42:14.409Z,19.10
2023-02-14T14:47:07.431Z,17.85
2023-02-14T14:51:59.260Z,19.73
2023-02-14T14:57:01.680Z,19.85
2023-02-14T15:01:54.504Z,16.52
2023-02-14T15:06:47.509Z,18.48
2023-02-14T15:11:59.017Z,17.10
2023-02-14T15:16:53.706Z,16.25
2023-02-14T15:21:46.167Z,18.95
2023-02-14T15:26:38.034Z,16.07
2023-02-14T15:31:33.799Z,16.33
2023-02-14T15:36:26.336Z,15.90
2023-02-14T15:41:20.133Z,15.90
2023-02-14T15:46:15.240Z,14.55
2023-02-14T15:51:07.998Z,14.90
2023-02-14T15:56:04.998Z,14.32
2023-02-14T16:00:56.893Z,14.52
2023-02-14T16:05:50.110Z,14.48
2023-02-14T16:10:41.907Z,14.18
2023-02-14T16:15:35.316Z,13.85
2023-02-14T16:20:40.426Z,14.10
2023-02-14T16:25:32.493Z,13.30
2023-02-14T16:30:24.339Z,13.60
2023-02-14T16:35:21.188Z,13.13
2023-02-14T16:40:15.249Z,13.23
2023-02-14T16:45:07.419Z,14.05
2023-02-14T16:49:59.149Z,13.43
2023-02-14T16:54:51.285Z,15.00
2023-02-14T16:59:43.010Z,13.95
2023-02-14T17:04:34.746Z,13.40
2023-02-14T17:09:30.305Z,11.38
2023-02-14T17:14:37.349Z,11.20
2023-02-14T17:19:29.102Z,13.93
2023-02-14T17:24:20.902Z,14.00
2023-02-14T17:29:13.468Z,12.98
2023-02-14T17:34:05.258Z,13.27
2023-02-14T17:38:57.069Z,13.50
2023-02-14T17:43:49.615Z,12.60
2023-02-14T17:48:42.291Z,15.17
2023-02-14T17:53:34.755Z,15.30
2023-02-14T17:58:26.537Z,15.60
2023-02-14T18:03:18.985Z,15.48
2023-02-14T18:08:10.797Z,15.37
2023-02-14T18:13:03.368Z,16.92
2023-02-14T18:17:55.579Z,16.80
2023-02-14T18:22:47.446Z,17.10
2023-02-14T18:27:39.401Z,16.80
2023-02-14T18:32:31.275Z,15.43
2023-02-14T18:37:23.137Z,15.85
2023-02-14T18:42:14.921Z,13.85
2023-02-14T18:47:07.264Z,14.95
2023-02-14T18:51:59.060Z,16.53
2023-02-14T18:56:50.881Z,16.15
2023-02-14T19:01:44.436Z,16.20
2023-02-14T19:06:36.769Z,16.95
2023-02-14T19:11:34.212Z,14.73
2023-02-14T19:16:29.666Z,16.08
2023-02-14T19:21:26.981Z,18.17
2023-02-14T19:26:21.810Z,15.90
2023-02-14T19:31:13.902Z,18.90
2023-02-14T19:36:07.536Z,16.27
2023-02-14T19:40:59.614Z,18.33
2023-02-14T19:45:52.113Z,16.37
2023-02-14T19:50:44.051Z,16.30
2023-02-14T19:55:35.955Z,15.80
2023-02-14T20:00:28.028Z,14.73
2023-02-14T20:05:20.561Z,16.40
2023-02-14T20:10:13.501Z,15.82
2023-02-14T20:15:06.097Z,16.50
2023-02-14T20:19:57.889Z,16.50
2023-02-14T20:24:50.131Z,15.13
2023-02-14T20:29:44.946Z,15.88
2023-02-14T20:34:36.757Z,15.80
2023-02-14T20:39:31.554Z,15.43
2023-02-14T20:44:23.876Z,16.50
2023-02-14T20:49:16.211Z,13.93
2023-02-14T20:54:08.107Z,14.33
2023-02-14T20:59:02.871Z,14.35
2023-02-14T21:03:55.617Z,15.07
2023-02-14T21:08:48.767Z,15.63
2023-02-14T21:13:40.746Z,14.20
2023-02-14T21:18:33.601Z,13.02
2023-02-14T21:23:25.412Z,12.88
2023-02-14T21:28:17.154Z,13.70
2023-02-14T21:33:08.974Z,13.02
2023-02-14T21:38:00.727Z,13.55
2023-02-14T21:42:52.487Z,13.45
2023-02-14T21:48:04.215Z,14.60
2023-02-14T21:52:55.984Z,21.70
2023-02-14T21:57:47.830Z,18.95
2023-02-14T22:02:40.004Z,13.73
2023-02-14T22:07:31.868Z,16.80
2023-02-14T22:12:23.688Z,15.38
2023-02-14T22:17:15.482Z,17.98
2023-02-14T22:22:07.246Z,14.93
2023-02-14T22:26:59.004Z,16.00
2023-02-14T22:31:50.930Z,13.73
2023-02-14T22:36:42.777Z,13.57
2023-02-14T22:41:37.814Z,14.23
2023-02-14T22:46:29.707Z,14.55
2023-02-14T22:51:28.686Z,14.52
2023-02-14T22:56:28.498Z,12.70
2023-02-14T23:01:21.160Z,13.73
2023-02-14T23:06:14.125Z,12.48
2023-02-14T23:11:10.737Z,13.07
2023-02-14T23:16:21.224Z,14.30
2023-02-14T23:21:32.710Z,13.43
2023-02-14T23:26:24.495Z,12.32
2023-02-14T23:31:16.333Z,13.55
2023-02-14T23:36:08.265Z,12.82
2023-02-14T23:41:29.733Z,13.52
2023-02-14T23:46:21.935Z,12.93
2023-02-14T23:51:13.706Z,14.65
2023-02-14T23:56:05.709Z,12.13
